SKLT/LET METAR and TAF weather

Enter ICAO airport designator
Station Type Date Time Source
SKLT METAR 2019/08/24 20:00 UTC NOAA

SKLT 242000Z 07008KT 030V100 2000 + TSRA BKN010CB OVC080 21/21 A2995 RMK CB/E


Station Type Date Time Source
SKLT Decoded METAR 2019/08/24 20:00 UTC NOAA

Station name not available
Aug 24, 2019 - 04:00 PM EDT / 2019.08.24 2000 UTC
Wind: from the ENE (070 degrees) at 9 MPH (8 KT) (direction variable):0
Visibility: 1 mile(s):0
Sky conditions: overcast
Weather: rain with thunder; Cumulonimbus clouds observed
Temperature: 69 F (21 C)
Dew Point: 69 F (21 C)
Relative Humidity: 100%
Pressure (altimeter): 29.95 in. Hg (1014 hPa)
ob: SKLT 242000Z 07008KT 030V100 2000 + TSRA BKN010CB OVC080 21/21 A2995 RMK CB/E
cycle: 20

Station Type Date Time Source
SKLT TAF 2019/08/24 18:42 UTC NOAA

TAF SKLT 241630Z 2418/2518 31003KT 9999 FEW020
BECMG 2420/2422 VRB02KT CAVOK
TEMPO 2510/1513 DZ BKN020 TX34/2418Z TN21/2511Z

Example: see airport list